Time;durP1;ratioP1;P1;durP2;ratioP2;P2;SDS_P1;SDS_P2;PMS_P1;PMS_P2;Temp;Humidity;BMP_temperature;BMP_pressure;BME280_temperature;BME280_humidity;BME280_pressure;Samples;Min_cycle;Max_cycle;Signal;HPM_P1;HPM_P2
2021/12/31 13:57:56;;;;;;;2.40;2.20;;;18.50;99.00;;;;;;5434642;24;20521;-95
2021/12/31 14:00:27;;;;;;;2.33;2.00;;;19.20;97.40;;;;;;4757793;29;21003;-94
2021/12/31 14:02:53;;;;;;;2.53;2.33;;;18.60;97.80;;;;;;4741583;29;20473;-94
2021/12/31 14:05:27;;;;;;;2.17;2.03;;;18.00;99.30;;;;;;4757315;29;20494;-95
2021/12/31 14:10:27;;;;;;;3.40;3.10;;;19.30;97.50;;;;;;4760676;29;21375;-96
2021/12/31 14:13:17;;;;;;;3.47;3.17;;;18.90;97.60;;;;;;4741467;29;20475;-96
2021/12/31 14:16:00;;;;;;;2.80;2.60;;;18.00;98.80;;;;;;4756687;29;20477;-95
2021/12/31 14:18:38;;;;;;;4.13;2.60;;;17.10;99.90;;;;;;4758068;29;20509;-96
2021/12/31 14:21:13;;;;;;;2.93;2.50;;;16.70;99.90;;;;;;4759101;29;20496;-96
2021/12/31 14:23:38;;;;;;;3.10;2.47;;;16.20;99.90;;;;;;4750255;29;20474;-95
2021/12/31 14:26:04;;;;;;;3.30;3.00;;;16.00;99.90;;;;;;4743481;29;20969;-95
2021/12/31 14:28:36;;;;;;;4.50;4.10;;;15.80;99.90;;;;;;4737668;29;20205;-94
2021/12/31 14:31:03;;;;;;;5.07;4.50;;;15.70;99.90;;;;;;4747712;29;20229;-96
2021/12/31 14:33:56;;;;;;;4.00;3.70;;;15.70;99.90;;;;;;4768757;29;20465;-96
2021/12/31 14:36:35;;;;;;;4.90;4.40;;;15.70;99.90;;;;;;4767484;29;20467;-96
2021/12/31 14:41:36;;;;;;;4.27;3.87;;;15.60;99.90;;;;;;5289962;24;21663;-94
2021/12/31 14:44:06;;;;;;;8.70;7.00;;;15.60;99.90;;;;;;4779058;29;20517;-96
2021/12/31 14:46:34;;;;;;;7.20;6.30;;;15.60;99.90;;;;;;4740539;29;20202;-95
2021/12/31 14:49:04;;;;;;;7.30;6.70;;;15.50;99.90;;;;;;4739460;29;20466;-96
2021/12/31 14:54:52;;;;;;;3.80;3.50;;;15.10;99.90;;;;;;5563848;24;20972;-96
2021/12/31 14:57:50;;;;;;;;;;;;;;;;;;;;;
2021/12/31 15:00:18;;;;;;;4.90;4.27;;;14.80;99.90;;;;;;4748812;29;20498;-95
2021/12/31 15:02:47;;;;;;;2.60;2.40;;;14.70;99.90;;;;;;4738131;29;20488;-93
2021/12/31 15:05:21;;;;;;;3.53;3.23;;;14.60;99.90;;;;;;4745697;29;21018;-93
2021/12/31 15:08:00;;;;;;;3.20;3.00;;;14.50;99.90;;;;;;4746617;29;20463;-95
2021/12/31 15:10:29;;;;;;;3.53;3.23;;;14.50;99.90;;;;;;4752115;29;20474;-96
2021/12/31 15:12:59;;;;;;;3.53;3.23;;;14.50;99.90;;;;;;4745193;29;20459;-94
2021/12/31 15:16:30;;;;;;;;;;;;;;;;;;;;;
2021/12/31 15:19:15;;;;;;;4.33;3.93;;;14.40;99.90;;;;;;4750497;29;20768;-94
2021/12/31 15:21:42;;;;;;;2.80;2.60;;;14.30;99.90;;;;;;4732089;29;20706;-94
2021/12/31 15:24:12;;;;;;;2.80;2.60;;;14.20;99.90;;;;;;4730333;29;20724;-93
2021/12/31 15:27:30;;;;;;;2.83;2.63;;;14.10;99.90;;;;;;4733645;29;20489;-94
2021/12/31 15:33:21;;;;;;;3.23;3.03;;;13.90;99.90;;;;;;4729681;29;20458;-94
2021/12/31 15:35:47;;;;;;;3.87;3.57;;;13.80;99.90;;;;;;4738430;29;20581;-94
2021/12/31 15:39:06;;;;;;;6.97;6.30;;;13.70;99.90;;;;;;4747103;29;20754;-95
2021/12/31 15:41:37;;;;;;;6.40;5.90;;;13.60;99.90;;;;;;4701848;29;20252;-93
2021/12/31 15:44:16;;;;;;;;;;;;;;;;;;;;;
2021/12/31 15:46:45;;;;;;;7.40;6.80;;;13.50;99.90;;;;;;4746038;29;20916;-90
2021/12/31 15:49:25;;;;;;;7.30;6.70;;;13.50;99.90;;;;;;4730899;29;20462;-92
2021/12/31 15:52:35;;;;;;;;;;;;;;;;;;;;;
2021/12/31 15:59:52;;;;;;;;;;;;;;;;;;;;;
2021/12/31 16:39:32;;;;;;;;;;;;;;;;;;;;;
2021/12/31 16:44:56;;;;;;;3.87;2.60;;;12.70;99.90;;;;;;4783988;29;20538;-96
2021/12/31 16:50:28;;;;;;;2.80;2.60;;;12.70;99.90;;;;;;5086906;24;20985;-96
2021/12/31 17:33:23;;;;;;;4.50;4.10;;;12.00;99.90;;;;;;5396337;24;21210;-96
2021/12/31 18:11:21;;;;;;;24.47;21.77;;;11.40;99.90;;;;;;3888545;27;20506;-95
2021/12/31 18:39:54;;;;;;;4.13;3.73;;;11.50;99.90;;;;;;5181681;24;20495;-96
2021/12/31 18:42:20;;;;;;;4.70;4.30;;;11.40;99.90;;;;;;4776360;29;20475;-96
2021/12/31 18:44:58;;;;;;;5.40;4.73;;;11.20;99.90;;;;;;4755067;29;21153;-95
2021/12/31 18:47:35;;;;;;;4.77;4.43;;;11.20;99.90;;;;;;4756337;29;20810;-92
2021/12/31 18:50:44;;;;;;;11.77;10.57;;;11.20;99.90;;;;;;4749487;29;20525;-94
2021/12/31 19:47:09;;;;;;;4.60;4.20;;;11.10;99.90;;;;;;4748343;29;20547;-93
2021/12/31 19:49:37;;;;;;;5.43;5.03;;;11.10;99.90;;;;;;4735844;29;22573;-93
2021/12/31 19:52:09;;;;;;;6.10;5.23;;;11.00;99.90;;;;;;4732446;29;20814;-94
2021/12/31 19:54:38;;;;;;;5.87;5.27;;;11.00;99.90;;;;;;4739575;29;20462;-95
2021/12/31 19:57:29;;;;;;;6.20;5.67;;;11.00;99.90;;;;;;4736526;29;20509;-93
2021/12/31 21:08:34;;;;;;;12.60;10.97;;;9.70;99.90;;;;;;4719773;29;21237;-91
2021/12/31 21:11:05;;;;;;;12.23;10.27;;;9.60;99.90;;;;;;4709369;30;20460;-90
2021/12/31 21:13:31;;;;;;;11.53;10.27;;;9.50;99.90;;;;;;4710007;30;20572;-91
2021/12/31 21:15:56;;;;;;;11.30;10.20;;;9.50;99.90;;;;;;4708014;30;20475;-92
2021/12/31 21:18:25;;;;;;;11.03;9.90;;;9.40;99.90;;;;;;4712229;30;21586;-94
2021/12/31 21:20:50;;;;;;;13.67;12.27;;;9.40;99.90;;;;;;4726093;30;20222;-95
2021/12/31 21:23:17;;;;;;;13.40;12.00;;;9.40;99.90;;;;;;4726347;30;20475;-91
2021/12/31 21:55:47;;;;;;;14.97;13.20;;;9.00;99.90;;;;;;4742351;29;20524;-95
2021/12/31 21:58:15;;;;;;;13.97;11.30;;;8.90;99.90;;;;;;4735529;29;20498;-90
2021/12/31 22:00:44;;;;;;;11.83;8.53;;;8.90;99.90;;;;;;4735388;29;20573;-91
2021/12/31 22:03:33;;;;;;;9.93;8.90;;;8.90;99.90;;;;;;4737522;29;20459;-92
2021/12/31 22:06:00;;;;;;;10.93;9.00;;;8.90;99.90;;;;;;4726704;29;20461;-89
2021/12/31 22:08:43;;;;;;;10.10;7.83;;;8.80;99.90;;;;;;4738805;29;20826;-91
2021/12/31 22:11:09;;;;;;;8.73;7.30;;;8.80;99.90;;;;;;4730137;29;20571;-92
2021/12/31 22:13:35;;;;;;;8.27;7.57;;;8.70;99.90;;;;;;4733462;29;20578;-89
2021/12/31 22:16:01;;;;;;;9.30;7.60;;;8.80;99.90;;;;;;4724551;29;20533;-89
2021/12/31 22:18:28;;;;;;;9.60;7.67;;;8.80;99.90;;;;;;4730334;29;20263;-91
2021/12/31 22:20:55;;;;;;;8.07;6.90;;;8.80;99.90;;;;;;4714478;29;20217;-92
2021/12/31 22:23:24;;;;;;;8.33;7.50;;;8.80;99.90;;;;;;4727452;29;21043;-91
2021/12/31 22:25:50;;;;;;;8.77;6.97;;;8.80;99.90;;;;;;4747744;29;21215;-91
2021/12/31 22:28:16;;;;;;;8.87;7.77;;;8.80;99.90;;;;;;4726899;29;21292;-90
2021/12/31 22:30:42;;;;;;;10.43;9.13;;;8.70;99.90;;;;;;4729576;29;20219;-89
2021/12/31 22:33:10;;;;;;;10.20;9.20;;;8.70;99.90;;;;;;4729730;29;20239;-90
2021/12/31 22:35:40;;;;;;;11.80;10.70;;;8.70;99.90;;;;;;4739160;29;21074;-86
2021/12/31 22:38:06;;;;;;;12.40;10.60;;;8.70;99.90;;;;;;4730995;29;20504;-89
2021/12/31 22:40:32;;;;;;;13.03;11.73;;;8.70;99.90;;;;;;4737380;29;20216;-89
2021/12/31 22:43:21;;;;;;;12.30;11.10;;;8.70;99.90;;;;;;4723214;29;20475;-91
2021/12/31 22:45:53;;;;;;;13.23;11.97;;;8.80;99.90;;;;;;4736101;29;20689;-93
2021/12/31 22:48:21;;;;;;;13.07;11.70;;;8.70;99.90;;;;;;4739713;29;22165;-92
2021/12/31 22:50:47;;;;;;;16.07;14.40;;;8.70;99.90;;;;;;4733790;29;20558;-93
2021/12/31 22:53:15;;;;;;;23.47;20.87;;;8.70;99.90;;;;;;4726499;29;22682;-92
2021/12/31 22:55:41;;;;;;;13.50;11.23;;;8.80;99.90;;;;;;4724851;29;20423;-93
2021/12/31 22:58:16;;;;;;;12.37;11.07;;;8.80;99.90;;;;;;4727625;29;20485;-94
2021/12/31 23:00:57;;;;;;;17.73;15.40;;;8.70;99.90;;;;;;4734990;24;20249;-92
2021/12/31 23:03:29;;;;;;;85.33;72.77;;;8.70;99.90;;;;;;4750954;29;20474;-96
2021/12/31 23:05:57;;;;;;;69.07;54.67;;;8.90;99.90;;;;;;4737060;29;21148;-93
2021/12/31 23:08:23;;;;;;;81.87;70.03;;;8.80;99.90;;;;;;4731872;29;21075;-92
2021/12/31 23:10:49;;;;;;;133.50;117.80;;;8.80;99.90;;;;;;4728390;29;20488;-92
2021/12/31 23:13:15;;;;;;;110.27;91.37;;;8.80;99.90;;;;;;4733906;29;20209;-92
2021/12/31 23:15:41;;;;;;;199.80;159.53;;;8.70;99.90;;;;;;4729140;29;20727;-90
2021/12/31 23:18:07;;;;;;;160.20;114.40;;;8.60;99.90;;;;;;4726945;29;20864;-92
2021/12/31 23:20:35;;;;;;;76.43;60.13;;;8.60;99.90;;;;;;4720808;29;20471;-91
2021/12/31 23:23:01;;;;;;;57.70;49.00;;;8.60;99.90;;;;;;4725488;29;20581;-91
2021/12/31 23:25:26;;;;;;;31.70;26.00;;;8.50;99.90;;;;;;4723377;29;20527;-91
2021/12/31 23:27:55;;;;;;;38.40;32.63;;;8.50;99.90;;;;;;4722741;29;20874;-91
2021/12/31 23:30:22;;;;;;;34.43;30.57;;;8.60;99.90;;;;;;4726348;29;20695;-94
2021/12/31 23:32:53;;;;;;;23.47;21.03;;;8.50;99.90;;;;;;4724936;29;21021;-90
2021/12/31 23:35:24;;;;;;;15.27;13.63;;;8.40;99.90;;;;;;4742060;29;21707;-91
2021/12/31 23:37:53;;;;;;;15.90;14.20;;;8.40;99.90;;;;;;4728429;29;20482;-92
2021/12/31 23:40:21;;;;;;;15.93;13.70;;;8.30;99.90;;;;;;4719471;29;20965;-91
2021/12/31 23:42:51;;;;;;;14.93;12.83;;;8.30;99.90;;;;;;4730007;29;20538;-91
2021/12/31 23:45:22;;;;;;;16.30;14.07;;;8.30;99.90;;;;;;4725253;29;20478;-91
2021/12/31 23:47:48;;;;;;;26.77;19.07;;;8.30;99.90;;;;;;4739333;29;20457;-92
2021/12/31 23:50:16;;;;;;;41.20;35.03;;;8.20;99.90;;;;;;4729831;29;20539;-90
2021/12/31 23:52:43;;;;;;;69.50;55.63;;;8.30;99.90;;;;;;4725981;29;20470;-92
2021/12/31 23:55:11;;;;;;;28.00;25.00;;;8.20;99.90;;;;;;4743254;29;20573;-92
2021/12/31 23:57:37;;;;;;;216.40;186.60;;;8.20;99.90;;;;;;4727463;29;20463;-92
